Time;durP1;ratioP1;P1;durP2;ratioP2;P2;SDS_P1;SDS_P2;PMS_P1;PMS_P2;Temp;Humidity;BMP_temperature;BMP_pressure;BME280_temperature;BME280_humidity;BME280_pressure;Samples;Min_cycle;Max_cycle;Signal;HPM_P1;HPM_P2
2023/02/27 00:01:38;;;;;;;4.33;2.10;;;;;;;2.35;47.56;97829.13;4959177;28;20567;-71
2023/02/27 00:04:04;;;;;;;2.87;2.17;;;;;;;2.35;47.14;97827.38;4952146;28;20308;-71
2023/02/27 00:06:29;;;;;;;4.53;2.20;;;;;;;2.44;47.58;97832.03;4951699;28;20450;-70
2023/02/27 00:08:54;;;;;;;5.30;2.10;;;;;;;2.51;47.45;97821.34;4951343;28;20245;-72
2023/02/27 00:11:20;;;;;;;3.53;1.87;;;;;;;2.46;47.15;97822.41;4952623;28;20287;-72
2023/02/27 00:13:46;;;;;;;3.10;1.93;;;;;;;2.54;47.35;97824.56;4954655;28;20195;-71
2023/02/27 00:16:11;;;;;;;1.93;1.77;;;;;;;2.59;47.38;97814.81;4951428;28;20882;-72
2023/02/27 00:18:37;;;;;;;3.00;2.30;;;;;;;2.60;46.77;97823.41;4960032;28;20185;-72
2023/02/27 00:21:02;;;;;;;3.50;2.30;;;;;;;2.65;47.16;97813.63;4954320;28;20220;-72
2023/02/27 00:23:28;;;;;;;4.17;2.23;;;;;;;2.63;47.11;97812.06;4951903;28;20685;-72
2023/02/27 00:25:54;;;;;;;3.10;2.33;;;;;;;2.64;46.94;97808.53;4951515;28;20299;-72
2023/02/27 00:28:20;;;;;;;2.37;2.17;;;;;;;2.58;47.12;97820.91;4952187;28;20218;-73
2023/02/27 00:30:46;;;;;;;2.80;2.17;;;;;;;2.50;46.80;97817.06;4959884;28;20418;-71
2023/02/27 00:33:11;;;;;;;2.93;2.10;;;;;;;2.48;47.37;97816.31;4951223;28;20428;-70
2023/02/27 00:35:36;;;;;;;2.77;2.40;;;;;;;2.49;47.04;97812.81;4951677;28;20216;-71
2023/02/27 00:38:02;;;;;;;3.27;1.77;;;;;;;2.56;47.45;97811.56;4951649;28;20269;-71
2023/02/27 00:40:28;;;;;;;2.67;1.93;;;;;;;2.47;46.77;97823.28;4950886;28;20186;-72
2023/02/27 00:42:53;;;;;;;3.80;2.03;;;;;;;2.48;47.17;97830.13;4951889;28;20190;-70
2023/02/27 00:45:19;;;;;;;3.37;2.20;;;;;;;2.50;46.91;97825.69;4958088;28;20630;-71
2023/02/27 00:47:44;;;;;;;2.30;2.10;;;;;;;2.53;47.41;97822.09;4934305;29;20182;-72
2023/02/27 00:50:10;;;;;;;2.37;1.90;;;;;;;2.48;47.29;97814.59;4960055;28;20183;-71
2023/02/27 00:52:36;;;;;;;2.93;2.00;;;;;;;2.49;47.35;97820.59;4946307;28;20197;-71
2023/02/27 00:55:01;;;;;;;3.50;2.00;;;;;;;2.52;47.68;97810.88;4950823;28;20202;-72
2023/02/27 00:57:26;;;;;;;4.60;2.20;;;;;;;2.59;47.20;97817.41;4950328;28;20197;-71
2023/02/27 00:59:52;;;;;;;2.40;2.10;;;;;;;2.60;47.30;97813.88;4933826;29;20238;-71
2023/02/27 01:02:17;;;;;;;2.20;2.00;;;;;;;2.58;46.93;97818.31;4958688;28;20269;-72
2023/02/27 01:04:43;;;;;;;3.90;2.20;;;;;;;2.51;47.04;97819.59;4951068;28;20280;-71
2023/02/27 01:07:08;;;;;;;3.90;2.30;;;;;;;2.53;47.11;97812.56;4950752;28;20274;-72
2023/02/27 01:09:34;;;;;;;2.27;1.90;;;;;;;2.56;47.26;97806.41;4953493;28;20244;-71
2023/02/27 01:11:59;;;;;;;2.20;2.10;;;;;;;2.60;47.34;97818.22;4956710;28;20233;-70
2023/02/27 01:14:25;;;;;;;6.93;2.10;;;;;;;2.58;47.34;97810.56;4951551;28;20277;-70
2023/02/27 01:16:51;;;;;;;4.63;2.50;;;;;;;2.66;46.99;97811.84;4962197;28;20584;-70
2023/02/27 01:19:16;;;;;;;5.33;2.27;;;;;;;2.68;46.94;97810.03;4951463;28;20594;-71
2023/02/27 01:21:42;;;;;;;2.53;2.10;;;;;;;2.68;47.15;97807.44;4950584;28;20189;-70
2023/02/27 01:24:08;;;;;;;3.37;2.17;;;;;;;2.72;46.67;97809.75;4953312;28;20273;-71
2023/02/27 01:26:33;;;;;;;2.00;1.90;;;;;;;2.68;47.08;97812.59;4952935;28;20179;-70
2023/02/27 01:28:59;;;;;;;2.33;2.10;;;;;;;2.62;46.69;97811.19;4950803;28;20426;-71
2023/02/27 01:31:24;;;;;;;2.83;1.97;;;;;;;2.63;46.80;97802.53;4950026;28;20703;-71
2023/02/27 01:33:50;;;;;;;2.57;2.07;;;;;;;2.57;47.05;97802.88;4955349;28;20222;-72
2023/02/27 01:36:15;;;;;;;4.93;2.60;;;;;;;2.54;46.94;97797.88;4952262;28;20570;-72
2023/02/27 01:38:41;;;;;;;6.73;2.60;;;;;;;2.55;47.00;97800.38;4950540;28;20313;-71
2023/02/27 01:41:06;;;;;;;2.30;2.00;;;;;;;2.60;47.38;97798.38;4950526;28;20182;-72
2023/02/27 01:43:33;;;;;;;2.80;2.20;;;;;;;2.61;47.07;97794.84;4953924;28;20193;-70
2023/02/27 01:45:59;;;;;;;2.50;2.30;;;;;;;2.55;47.30;97795.19;4950687;28;20186;-71
2023/02/27 01:48:29;;;;;;;4.07;2.30;;;;;;;2.47;47.11;97802.56;4949977;28;20433;-71
2023/02/27 01:51:00;;;;;;;2.83;2.13;;;;;;;2.45;47.12;97800.06;4962853;28;20429;-71
2023/02/27 01:53:27;;;;;;;3.73;2.20;;;;;;;2.47;47.22;97805.16;4950278;28;20438;-71
2023/02/27 01:55:57;;;;;;;3.07;2.40;;;;;;;2.41;47.41;97802.91;4929669;29;20458;-71
2023/02/27 01:58:23;;;;;;;3.23;2.30;;;;;;;2.39;47.38;97791.81;4947808;28;20432;-70
2023/02/27 02:00:48;;;;;;;2.27;2.07;;;;;;;2.34;47.03;97791.25;4950147;28;20430;-72
2023/02/27 02:03:40;;;;;;;2.57;2.37;;;;;;;2.34;47.66;97792.06;4950481;28;20261;-68
2023/02/27 02:06:06;;;;;;;2.70;1.97;;;;;;;2.33;47.67;97785.25;4953115;28;20537;-73
2023/02/27 02:08:35;;;;;;;3.90;2.37;;;;;;;2.34;47.66;97788.66;4932652;28;20498;-71
2023/02/27 02:11:02;;;;;;;3.63;2.13;;;;;;;2.32;47.68;97793.06;4965194;28;20438;-71
2023/02/27 02:13:27;;;;;;;6.90;1.90;;;;;;;2.33;47.86;97792.16;4942261;28;20962;-70
2023/02/27 02:16:05;;;;;;;4.43;2.30;;;;;;;2.26;48.13;97791.66;4951179;28;20469;-70
2023/02/27 02:18:47;;;;;;;7.00;2.43;;;;;;;2.34;47.99;97801.59;4940330;28;20190;-71
2023/02/27 02:21:46;;;;;;;3.50;2.40;;;;;;;2.37;48.11;97798.84;4970963;28;20818;-71
2023/02/27 02:24:17;;;;;;;3.00;2.27;;;;;;;2.44;47.66;97798.41;4946528;28;20446;-72
2023/02/27 02:26:49;;;;;;;3.10;2.33;;;;;;;2.49;47.55;97795.56;4944950;28;20997;-69
2023/02/27 02:29:51;;;;;;;4.60;2.43;;;;;;;2.45;47.48;97799.22;4936644;29;20911;-70
2023/02/27 02:32:50;;;;;;;3.27;2.27;;;;;;;2.43;47.62;97788.97;4954946;28;20417;-72
2023/02/27 02:35:58;;;;;;;3.70;2.50;;;;;;;2.38;48.00;97795.34;4954924;28;20634;-70
2023/02/27 02:38:35;;;;;;;2.40;2.20;;;;;;;2.41;47.74;97797.72;4944112;28;20422;-69
2023/02/27 02:41:19;;;;;;;5.13;3.07;;;;;;;2.25;47.85;97787.41;4938505;29;20473;-67
2023/02/27 02:44:13;;;;;;;7.57;2.47;;;;;;;2.21;48.25;97788.50;4958972;28;20429;-71
2023/02/27 02:46:57;;;;;;;3.67;2.40;;;;;;;2.20;48.49;97786.84;4963720;28;20839;-70
2023/02/27 02:49:42;;;;;;;2.63;2.43;;;;;;;2.21;48.45;97791.06;4957955;28;20802;-71
2023/02/27 02:52:16;;;;;;;5.47;3.40;;;;;;;2.20;48.48;97790.25;4952614;28;20436;-71
2023/02/27 02:54:51;;;;;;;3.97;2.67;;;;;;;2.18;48.60;97797.25;4949435;28;20453;-71
2023/02/27 02:57:22;;;;;;;6.90;3.60;;;;;;;2.18;48.42;97792.09;4940603;28;20512;-70
2023/02/27 02:59:54;;;;;;;4.93;3.30;;;;;;;2.00;49.05;97799.13;4948339;28;21058;-70
2023/02/27 03:02:24;;;;;;;4.07;2.97;;;;;;;2.03;49.35;97795.50;4960742;28;20461;-71
2023/02/27 03:04:54;;;;;;;3.27;2.47;;;;;;;1.96;48.91;97790.69;4936269;29;20446;-70
2023/02/27 03:07:42;;;;;;;2.90;2.60;;;;;;;1.99;48.95;97807.78;4943630;28;20441;-71
2023/02/27 03:10:11;;;;;;;3.13;2.43;;;;;;;1.99;48.95;97800.03;4971718;28;20431;-72
2023/02/27 03:12:40;;;;;;;4.27;3.37;;;;;;;2.10;49.67;97810.63;4939303;28;20445;-71
2023/02/27 03:15:18;;;;;;;4.23;2.80;;;;;;;2.15;48.82;97797.41;4972793;28;20468;-71
2023/02/27 03:17:48;;;;;;;4.70;2.80;;;;;;;2.11;48.99;97798.53;4947206;28;20512;-70
2023/02/27 03:20:19;;;;;;;5.20;3.20;;;;;;;2.15;49.02;97797.41;4979049;28;20425;-71
2023/02/27 03:22:46;;;;;;;4.43;2.63;;;;;;;2.18;49.28;97801.63;4968633;28;20461;-71
2023/02/27 03:25:13;;;;;;;3.60;2.87;;;;;;;2.17;49.13;97807.69;4966756;28;20445;-71
2023/02/27 03:27:43;;;;;;;3.90;2.50;;;;;;;2.20;49.02;97810.94;4975085;28;20919;-71
2023/02/27 03:30:16;;;;;;;3.50;3.00;;;;;;;2.17;49.23;97800.75;4964117;28;20433;-71
2023/02/27 03:32:57;;;;;;;4.63;3.00;;;;;;;2.16;49.05;97804.28;4942981;28;20429;-70
2023/02/27 03:35:34;;;;;;;4.03;2.70;;;;;;;2.14;48.85;97806.13;4932257;28;20497;-71
2023/02/27 03:38:22;;;;;;;5.07;3.20;;;;;;;2.17;49.18;97808.53;4968479;28;20515;-71
2023/02/27 03:41:05;;;;;;;6.20;2.93;;;;;;;2.14;49.42;97811.31;4970021;28;20805;-70
2023/02/27 03:43:34;;;;;;;5.17;3.30;;;;;;;2.13;49.44;97810.44;4953999;28;20509;-69
2023/02/27 03:46:04;;;;;;;4.40;2.70;;;;;;;2.15;49.49;97815.53;4952948;28;20426;-69
2023/02/27 03:48:30;;;;;;;3.23;2.57;;;;;;;2.07;49.41;97821.16;4938962;28;20439;-70
2023/02/27 03:50:56;;;;;;;5.20;3.10;;;;;;;2.10;49.41;97825.31;4935217;28;21006;-71
2023/02/27 03:53:44;;;;;;;4.40;2.80;;;;;;;2.11;49.57;97821.81;4958918;28;20282;-71
2023/02/27 03:56:10;;;;;;;3.80;3.27;;;;;;;2.15;49.44;97818.97;4937232;29;20293;-70
2023/02/27 03:58:36;;;;;;;3.67;2.83;;;;;;;2.19;49.35;97822.22;4951758;28;20516;-71
2023/02/27 04:01:01;;;;;;;4.00;2.67;;;;;;;2.25;49.43;97819.31;4935101;28;20518;-72
2023/02/27 04:03:27;;;;;;;4.60;2.80;;;;;;;2.20;49.10;97836.81;4957623;28;20202;-70
2023/02/27 04:05:52;;;;;;;5.53;3.07;;;;;;;2.20;49.17;97839.41;4962857;28;20250;-70
2023/02/27 04:08:39;;;;;;;4.60;3.00;;;;;;;2.17;49.87;97836.97;4951874;28;20194;-70
2023/02/27 04:11:30;;;;;;;3.50;2.70;;;;;;;2.15;49.23;97838.81;4956580;28;20191;-71
2023/02/27 04:14:26;;;;;;;7.50;3.50;;;;;;;2.10;49.59;97846.81;4968010;28;20435;-72
2023/02/27 04:16:55;;;;;;;3.07;2.87;;;;;;;2.15;49.78;97838.81;4944555;28;20936;-69
2023/02/27 04:19:28;;;;;;;3.53;2.97;;;;;;;2.18;50.04;97838.66;4937468;29;20429;-70
2023/02/27 04:22:30;;;;;;;7.67;2.77;;;;;;;2.20;49.54;97842.00;4945031;28;20410;-71
2023/02/27 04:25:29;;;;;;;3.03;2.67;;;;;;;2.15;49.95;97841.38;4931459;29;20477;-71
2023/02/27 04:28:16;;;;;;;4.93;3.00;;;;;;;2.20;49.59;97842.00;4932156;28;20438;-73
2023/02/27 04:31:00;;;;;;;5.60;3.20;;;;;;;2.14;49.38;97839.75;4932360;28;20582;-71
2023/02/27 04:33:47;;;;;;;3.27;2.70;;;;;;;2.03;50.17;97839.47;4951201;28;20410;-73
2023/02/27 04:36:22;;;;;;;4.17;2.90;;;;;;;2.14;49.88;97832.81;4951251;28;20509;-70
2023/02/27 04:38:57;;;;;;;3.37;2.73;;;;;;;2.16;49.58;97832.72;4941228;28;20795;-71
2023/02/27 04:41:31;;;;;;;3.70;2.90;;;;;;;2.14;49.59;97837.97;4953358;28;20421;-70
2023/02/27 04:43:57;;;;;;;6.20;2.97;;;;;;;2.14;49.83;97842.34;4967011;28;21032;-71
2023/02/27 04:46:26;;;;;;;5.53;2.73;;;;;;;2.13;49.86;97836.31;4931071;29;20427;-71
2023/02/27 04:48:57;;;;;;;3.10;2.57;;;;;;;2.21;49.99;97833.31;4955643;28;20450;-72
2023/02/27 04:51:26;;;;;;;4.10;3.20;;;;;;;2.16;50.01;97853.41;4959837;28;20434;-71
2023/02/27 04:53:56;;;;;;;5.87;3.90;;;;;;;2.20;49.97;97847.16;4930449;28;20954;-70
2023/02/27 04:56:26;;;;;;;6.73;3.20;;;;;;;2.23;49.86;97841.81;4965823;28;20490;-70
2023/02/27 04:58:54;;;;;;;3.00;2.60;;;;;;;2.17;49.38;97841.31;4935097;28;20430;-73
2023/02/27 05:01:25;;;;;;;3.63;2.97;;;;;;;2.18;50.04;97843.00;4951001;28;20815;-69
2023/02/27 05:03:52;;;;;;;7.07;3.20;;;;;;;2.17;49.70;97842.16;4960518;28;20430;-71
2023/02/27 05:06:19;;;;;;;6.33;3.10;;;;;;;2.16;49.96;97835.31;4957157;28;20984;-70
2023/02/27 05:08:49;;;;;;;6.17;3.67;;;;;;;2.03;50.01;97840.31;4932497;28;21725;-69
2023/02/27 05:11:18;;;;;;;3.30;3.00;;;;;;;2.02;50.19;97853.34;4964252;28;20422;-71
2023/02/27 05:13:48;;;;;;;7.33;3.67;;;;;;;2.00;49.84;97850.81;4955029;28;20529;-72
2023/02/27 05:16:25;;;;;;;5.63;2.83;;;;;;;2.02;50.12;97854.16;4930446;29;21031;-69
2023/02/27 05:18:51;;;;;;;4.20;3.43;;;;;;;1.99;50.27;97857.75;4909819;29;20790;-69
2023/02/27 05:21:37;;;;;;;4.60;3.80;;;;;;;1.93;50.26;97852.91;4958107;28;20773;-68
2023/02/27 05:24:10;;;;;;;5.27;3.30;;;;;;;1.97;50.98;97857.00;4944238;28;20434;-68
2023/02/27 05:26:54;;;;;;;4.30;3.90;;;;;;;1.95;50.18;97860.59;4961819;28;20441;-71
2023/02/27 05:29:31;;;;;;;5.40;3.63;;;;;;;1.91;50.29;97857.31;4964508;28;20422;-72
2023/02/27 05:32:14;;;;;;;6.57;3.27;;;;;;;1.87;50.41;97861.00;4940784;29;20427;-71
2023/02/27 05:34:48;;;;;;;3.90;3.37;;;;;;;1.79;50.71;97863.13;4931321;28;20450;-70
2023/02/27 05:37:16;;;;;;;7.30;4.70;;;;;;;1.75;50.95;97866.81;4934979;29;20568;-72
2023/02/27 05:39:43;;;;;;;5.77;3.50;;;;;;;1.78;50.99;97864.06;4948235;28;20430;-71
2023/02/27 05:42:14;;;;;;;6.00;3.40;;;;;;;1.77;50.93;97865.81;4935973;29;20433;-71
2023/02/27 05:44:44;;;;;;;4.80;3.20;;;;;;;1.67;51.14;97868.03;4932399;28;20452;-71
2023/02/27 05:47:19;;;;;;;6.90;4.47;;;;;;;1.67;51.28;97869.81;4935662;28;20562;-70
2023/02/27 05:49:49;;;;;;;5.77;3.60;;;;;;;1.68;51.02;97872.31;4948430;28;20429;-70
2023/02/27 05:52:18;;;;;;;10.00;4.87;;;;;;;1.61;51.20;97875.28;4953191;28;20511;-71
2023/02/27 05:54:48;;;;;;;8.07;3.80;;;;;;;1.55;51.75;97875.63;4943939;28;20497;-70
2023/02/27 05:57:18;;;;;;;4.70;3.00;;;;;;;1.50;51.36;97874.09;4962713;28;20473;-72
2023/02/27 05:59:54;;;;;;;3.87;3.40;;;;;;;1.55;51.35;97886.78;4982368;28;20445;-70
2023/02/27 06:02:19;;;;;;;4.37;3.70;;;;;;;1.54;51.39;97867.00;4957769;28;20436;-70
2023/02/27 06:04:44;;;;;;;4.87;3.70;;;;;;;1.48;51.48;97869.94;4973011;28;20453;-72
2023/02/27 06:07:12;;;;;;;7.80;3.67;;;;;;;1.38;51.89;97875.56;4956462;29;20186;-71
2023/02/27 06:09:38;;;;;;;4.37;3.47;;;;;;;1.38;51.70;97870.41;4971887;28;20187;-72
2023/02/27 06:12:03;;;;;;;4.07;3.43;;;;;;;1.32;52.11;97877.63;4975342;28;20429;-73
2023/02/27 06:14:29;;;;;;;6.63;3.70;;;;;;;1.34;52.13;97875.78;4972350;28;20276;-72
2023/02/27 06:16:54;;;;;;;3.80;3.40;;;;;;;1.28;51.91;97879.50;4970072;28;20193;-72
2023/02/27 06:19:21;;;;;;;6.43;3.63;;;;;;;1.31;51.97;97878.53;4969020;28;20202;-70
2023/02/27 06:21:46;;;;;;;5.23;3.80;;;;;;;1.31;52.31;97874.19;4967776;28;20528;-68
2023/02/27 06:24:11;;;;;;;7.00;3.50;;;;;;;1.30;51.96;97888.03;4918703;29;20210;-72
2023/02/27 06:26:37;;;;;;;4.17;3.77;;;;;;;1.33;52.08;97884.44;4948991;28;20809;-70
2023/02/27 06:29:02;;;;;;;4.03;3.17;;;;;;;1.31;52.05;97887.13;4945514;28;20186;-71
2023/02/27 06:31:28;;;;;;;5.27;3.80;;;;;;;1.34;51.95;97894.72;4962585;28;20273;-70
2023/02/27 06:33:54;;;;;;;3.80;3.37;;;;;;;1.35;52.00;97895.53;4935160;28;20860;-70
2023/02/27 06:36:21;;;;;;;6.63;3.90;;;;;;;1.37;51.86;97892.00;4956072;28;20257;-71
2023/02/27 06:38:47;;;;;;;5.20;3.50;;;;;;;1.38;52.15;97896.25;4965572;28;20470;-70
2023/02/27 06:41:12;;;;;;;6.90;4.10;;;;;;;1.47;52.05;97894.09;4957618;28;20834;-71
2023/02/27 06:43:38;;;;;;;4.60;4.00;;;;;;;1.58;51.80;97904.72;4960679;28;20709;-70
2023/02/27 06:46:03;;;;;;;4.57;3.70;;;;;;;1.75;51.83;97897.84;4957736;28;20565;-70
2023/02/27 06:48:29;;;;;;;6.10;4.27;;;;;;;1.94;51.23;97898.53;4964607;28;20210;-71
2023/02/27 06:50:55;;;;;;;6.47;4.10;;;;;;;2.15;50.61;97900.88;4954211;28;21090;-72
2023/02/27 06:53:21;;;;;;;9.63;5.43;;;;;;;2.27;50.18;97891.63;4953294;28;20187;-71
2023/02/27 06:55:48;;;;;;;10.17;5.93;;;;;;;2.46;49.82;97904.41;4954824;28;21043;-73
2023/02/27 06:58:14;;;;;;;14.63;6.90;;;;;;;2.54;49.56;97904.81;4957323;28;20430;-70
2023/02/27 07:00:39;;;;;;;9.43;5.37;;;;;;;2.71;49.24;97903.88;4955679;28;20439;-70
2023/02/27 07:03:05;;;;;;;10.67;5.13;;;;;;;2.80;48.95;97905.09;4957698;28;20517;-72
2023/02/27 07:05:30;;;;;;;7.23;4.60;;;;;;;2.85;48.45;97913.47;4961695;28;20205;-72
2023/02/27 07:07:57;;;;;;;8.73;4.70;;;;;;;2.91;48.65;97914.88;4953734;28;20611;-73
2023/02/27 07:10:23;;;;;;;7.83;4.83;;;;;;;3.01;48.52;97910.00;4952950;28;20458;-73
2023/02/27 07:12:48;;;;;;;4.93;4.13;;;;;;;3.01;48.11;97910.84;4971089;28;20432;-73
2023/02/27 07:15:14;;;;;;;8.00;3.97;;;;;;;2.96;47.82;97917.19;4953896;28;20206;-72
2023/02/27 07:17:39;;;;;;;15.97;5.07;;;;;;;2.87;48.46;97919.41;4955301;28;20728;-72
2023/02/27 07:20:07;;;;;;;6.10;3.97;;;;;;;2.85;48.27;97916.06;4960767;28;20281;-72
2023/02/27 07:22:32;;;;;;;10.13;4.67;;;;;;;2.81;48.28;97919.72;4954454;28;20190;-71
2023/02/27 07:24:58;;;;;;;7.90;4.60;;;;;;;2.83;48.17;97922.25;4956507;28;20473;-72
2023/02/27 07:27:23;;;;;;;13.10;4.10;;;;;;;2.76;48.31;97922.56;4952330;28;20191;-72
2023/02/27 07:29:49;;;;;;;7.37;4.30;;;;;;;2.76;48.58;97932.13;4951365;28;20191;-73
2023/02/27 07:32:14;;;;;;;8.53;4.50;;;;;;;2.74;48.31;97928.75;4958381;28;20836;-72
2023/02/27 07:34:40;;;;;;;8.57;5.07;;;;;;;2.72;48.84;97931.41;4955689;28;20237;-71
2023/02/27 07:37:05;;;;;;;7.30;4.47;;;;;;;2.73;48.74;97927.91;4953128;28;20317;-73
2023/02/27 07:39:31;;;;;;;5.30;4.00;;;;;;;2.79;50.46;97931.91;4959662;28;20304;-70
2023/02/27 07:41:56;;;;;;;5.67;4.30;;;;;;;2.94;48.28;97932.84;4955886;28;20227;-70
2023/02/27 07:44:22;;;;;;;11.73;4.13;;;;;;;3.00;48.30;97929.06;4951889;28;20289;-69
2023/02/27 07:46:47;;;;;;;6.17;4.30;;;;;;;3.00;47.94;97932.47;4950967;28;20218;-71
2023/02/27 07:49:12;;;;;;;4.40;3.87;;;;;;;3.06;47.79;97928.69;4952391;28;21044;-72
2023/02/27 07:51:38;;;;;;;5.80;4.13;;;;;;;2.95;47.76;97931.91;4949868;28;20321;-71
2023/02/27 07:54:03;;;;;;;7.40;4.03;;;;;;;3.05;47.92;97934.78;4950246;28;20189;-69
2023/02/27 07:56:29;;;;;;;14.70;3.83;;;;;;;3.07;47.71;97935.53;4950604;28;20211;-70
2023/02/27 07:58:55;;;;;;;6.00;4.00;;;;;;;3.15;47.64;97940.28;4950716;28;20187;-70
2023/02/27 08:01:20;;;;;;;6.73;4.30;;;;;;;3.13;47.07;97936.94;4953053;28;20194;-71
2023/02/27 08:03:46;;;;;;;7.27;3.83;;;;;;;3.13;47.29;97934.38;4952705;28;20280;-71
2023/02/27 08:06:12;;;;;;;7.17;4.30;;;;;;;3.16;47.01;97937.59;4956035;28;20186;-70
2023/02/27 08:08:37;;;;;;;10.57;3.83;;;;;;;3.15;47.45;97938.53;4962753;28;20311;-71
2023/02/27 08:11:03;;;;;;;7.27;3.70;;;;;;;3.13;46.92;97939.53;4953414;28;20561;-70
2023/02/27 08:13:28;;;;;;;8.20;4.37;;;;;;;3.33;46.93;97926.28;4955553;28;20194;-70
2023/02/27 08:15:53;;;;;;;3.77;3.20;;;;;;;3.53;46.72;97927.69;4955425;28;20218;-72
2023/02/27 08:18:19;;;;;;;3.47;3.03;;;;;;;3.59;46.17;97942.06;4947485;29;20281;-70
2023/02/27 08:20:45;;;;;;;4.90;3.70;;;;;;;3.80;45.25;97929.56;4953619;28;20221;-70
2023/02/27 08:23:10;;;;;;;6.30;3.77;;;;;;;4.01;45.12;97929.22;4933141;28;20187;-71
2023/02/27 08:25:36;;;;;;;6.57;3.90;;;;;;;4.20;44.20;97936.72;4951973;28;20400;-72
2023/02/27 08:28:02;;;;;;;8.13;4.07;;;;;;;4.46;43.99;97934.28;4945655;28;20197;-70
2023/02/27 08:30:28;;;;;;;6.77;4.53;;;;;;;4.70;43.54;97929.28;4934044;29;20536;-70
2023/02/27 08:32:54;;;;;;;5.53;4.10;;;;;;;4.71;42.37;97925.75;4950386;28;20434;-70
2023/02/27 08:35:20;;;;;;;10.83;4.93;;;;;;;5.12;42.09;97923.19;4951048;28;20202;-70
2023/02/27 08:37:45;;;;;;;10.90;6.20;;;;;;;5.50;41.38;97927.63;4931970;28;20434;-71
2023/02/27 08:40:11;;;;;;;7.47;3.90;;;;;;;5.86;40.93;97927.84;4933655;29;20659;-72
2023/02/27 08:42:37;;;;;;;3.60;3.30;;;;;;;6.19;41.33;97929.09;4953647;28;20651;-73
2023/02/27 08:45:03;;;;;;;4.83;3.43;;;;;;;6.62;40.33;97939.06;4963473;28;20233;-70
2023/02/27 08:47:28;;;;;;;6.30;3.57;;;;;;;6.87;39.03;97934.69;4934342;29;20190;-71
2023/02/27 08:49:55;;;;;;;5.90;3.70;;;;;;;7.30;38.83;97933.34;4949690;28;20419;-70
2023/02/27 08:52:21;;;;;;;3.57;3.07;;;;;;;7.88;38.70;97937.72;4950977;28;20194;-71
2023/02/27 08:54:46;;;;;;;11.10;4.00;;;;;;;7.85;36.39;97936.19;4917657;28;20995;-70
2023/02/27 08:57:12;;;;;;;3.47;3.07;;;;;;;8.21;35.79;97936.91;4950812;28;20462;-69
2023/02/27 08:59:37;;;;;;;3.87;3.03;;;;;;;8.35;34.94;97938.44;4942319;28;20187;-69
2023/02/27 09:02:03;;;;;;;5.17;3.50;;;;;;;8.35;34.16;97935.81;4939291;28;20217;-70
2023/02/27 09:04:28;;;;;;;6.57;3.60;;;;;;;8.55;33.95;97936.91;4956666;28;20634;-70
2023/02/27 09:07:02;;;;;;;5.30;3.10;;;;;;;8.41;33.55;97943.19;4941068;28;20627;-71
2023/02/27 09:09:27;;;;;;;3.57;3.07;;;;;;;8.49;34.51;97947.00;4935001;29;20274;-71
2023/02/27 09:11:53;;;;;;;9.40;2.73;;;;;;;8.86;33.98;97946.69;4936606;28;20418;-70
2023/02/27 09:14:19;;;;;;;5.57;3.20;;;;;;;9.02;32.29;97938.41;4969991;28;20296;-71
2023/02/27 09:16:44;;;;;;;5.97;3.20;;;;;;;9.08;32.33;97945.78;4960485;28;20822;-70
2023/02/27 09:19:11;;;;;;;3.90;3.13;;;;;;;9.06;32.96;97943.31;4954946;28;20422;-71
2023/02/27 09:21:36;;;;;;;3.83;2.80;;;;;;;8.78;31.99;97951.72;4958310;28;20656;-69
2023/02/27 09:24:04;;;;;;;3.90;2.90;;;;;;;8.94;32.58;97939.06;4950215;28;20501;-70
2023/02/27 09:26:30;;;;;;;6.10;3.57;;;;;;;9.19;32.29;97935.28;4952966;28;20177;-70
2023/02/27 09:28:55;;;;;;;8.63;3.23;;;;;;;9.16;32.00;97939.94;4951512;28;20463;-71
2023/02/27 09:31:21;;;;;;;8.37;2.97;;;;;;;9.33;31.28;97935.94;4955012;28;20218;-69
2023/02/27 09:33:46;;;;;;;3.70;2.80;;;;;;;9.44;31.44;97935.06;4958651;28;20815;-70
2023/02/27 09:36:12;;;;;;;5.90;3.13;;;;;;;9.67;31.63;97939.19;4959595;28;20610;-69
2023/02/27 09:38:38;;;;;;;3.70;2.93;;;;;;;9.81;30.99;97939.81;4938544;28;20212;-71
2023/02/27 09:41:04;;;;;;;3.37;2.87;;;;;;;9.89;30.33;97931.31;4938126;28;20186;-71
2023/02/27 09:43:37;;;;;;;3.13;2.83;;;;;;;9.81;30.15;97937.22;4943261;29;20191;-71
2023/02/27 09:46:03;;;;;;;5.10;2.97;;;;;;;9.48;30.17;97944.28;4947220;28;20464;-70
2023/02/27 09:48:56;;;;;;;5.17;2.80;;;;;;;9.38;31.27;97946.84;4950192;28;20473;-70
2023/02/27 09:51:22;;;;;;;3.67;3.07;;;;;;;9.80;30.77;97940.78;4923888;28;20521;-70
2023/02/27 09:53:50;;;;;;;3.47;3.17;;;;;;;9.97;30.77;97945.41;4953155;28;20425;-70
2023/02/27 09:56:20;;;;;;;4.70;2.90;;;;;;;10.25;30.01;97945.66;4933535;28;20462;-69
2023/02/27 09:59:24;;;;;;;6.97;3.30;;;;;;;10.39;29.67;97941.06;4932240;28;20832;-70
2023/02/27 10:02:15;;;;;;;4.10;2.63;;;;;;;10.70;29.09;97946.25;4966716;28;20426;-71
2023/02/27 10:05:18;;;;;;;8.60;5.60;;;;;;;10.91;28.91;97954.00;4926714;28;21148;-72
2023/02/27 10:07:50;;;;;;;4.70;3.20;;;;;;;11.17;28.30;97950.84;4965108;28;20449;-67
2023/02/27 10:10:25;;;;;;;3.87;3.10;;;;;;;11.08;26.99;97942.03;4953912;28;20966;-69
2023/02/27 10:12:58;;;;;;;2.77;2.10;;;;;;;10.72;26.86;97952.16;4942636;28;20428;-69
2023/02/27 10:15:35;;;;;;;3.53;2.20;;;;;;;9.80;26.92;97959.09;4949541;28;20448;-69
2023/02/27 10:18:06;;;;;;;3.13;2.50;;;;;;;9.64;27.25;97957.78;4935644;28;20429;-69
2023/02/27 10:20:34;;;;;;;2.93;2.60;;;;;;;9.86;27.45;97958.56;4963263;28;20432;-69
2023/02/27 10:23:04;;;;;;;4.10;2.70;;;;;;;10.20;27.01;97963.59;4949611;28;20430;-70
2023/02/27 10:25:33;;;;;;;4.20;3.70;;;;;;;10.19;26.04;97961.09;4953354;28;20438;-69
2023/02/27 10:28:11;;;;;;;2.23;2.03;;;;;;;10.15;26.18;97965.75;4939349;28;20767;-71
2023/02/27 10:30:37;;;;;;;3.17;2.30;;;;;;;10.41;26.35;97954.88;4931808;29;20835;-70
2023/02/27 10:33:09;;;;;;;2.33;2.13;;;;;;;10.41;26.02;97963.53;4959180;28;20477;-70
2023/02/27 10:35:40;;;;;;;2.57;2.17;;;;;;;10.57;25.39;97970.94;4954218;28;20630;-70
2023/02/27 10:38:16;;;;;;;2.80;2.03;;;;;;;10.29;25.46;97972.44;4938949;28;20433;-70
2023/02/27 10:40:43;;;;;;;2.77;2.27;;;;;;;10.51;25.55;97970.63;4951215;28;20492;-70
2023/02/27 10:43:12;;;;;;;4.90;2.10;;;;;;;10.55;25.58;97978.09;4967367;28;20430;-71
2023/02/27 10:45:37;;;;;;;2.40;2.20;;;;;;;10.40;25.37;97974.16;4937807;28;20528;-70
2023/02/27 10:48:04;;;;;;;2.20;2.00;;;;;;;10.33;25.14;97986.13;4954612;28;21041;-71
2023/02/27 10:50:33;;;;;;;3.37;2.10;;;;;;;9.81;25.78;97982.53;4967381;28;20567;-71
2023/02/27 10:53:01;;;;;;;2.40;2.17;;;;;;;10.20;25.28;97984.56;4953667;28;20421;-72
2023/02/27 10:55:32;;;;;;;2.50;2.10;;;;;;;10.62;25.29;97974.91;4952765;28;20541;-72
2023/02/27 10:57:58;;;;;;;3.20;2.00;;;;;;;10.17;24.42;97979.56;4952214;28;20426;-71
2023/02/27 11:00:32;;;;;;;3.00;1.77;;;;;;;10.11;24.89;97974.84;4967270;28;20426;-72
2023/02/27 11:02:58;;;;;;;3.67;2.13;;;;;;;10.15;24.72;97966.56;4935871;28;21122;-73
2023/02/27 11:05:34;;;;;;;2.57;2.00;;;;;;;10.30;24.26;97976.72;4959852;28;20461;-70
2023/02/27 11:08:19;;;;;;;3.13;2.13;;;;;;;10.38;25.21;97983.94;4951316;28;20186;-71
2023/02/27 11:11:01;;;;;;;3.30;2.10;;;;;;;10.05;24.16;97967.50;4966097;28;20430;-70
2023/02/27 11:13:33;;;;;;;3.00;2.20;;;;;;;10.32;24.50;97968.72;4953606;28;20438;-71
2023/02/27 11:16:03;;;;;;;2.60;2.40;;;;;;;10.53;24.35;97966.06;4951659;28;20804;-72
2023/02/27 11:18:29;;;;;;;3.53;2.00;;;;;;;10.24;25.13;97958.91;4951551;28;20418;-72
2023/02/27 11:21:12;;;;;;;4.60;2.67;;;;;;;9.70;25.49;97958.22;4953545;28;20453;-71
2023/02/27 11:23:48;;;;;;;4.00;2.50;;;;;;;10.48;25.81;97950.72;4954424;28;20435;-70
2023/02/27 11:26:27;;;;;;;6.33;3.70;;;;;;;10.48;24.44;97971.69;4951756;28;20465;-71
2023/02/27 11:29:17;;;;;;;3.60;2.50;;;;;;;10.35;25.36;97955.34;4935512;28;20432;-71
2023/02/27 11:31:51;;;;;;;3.73;2.70;;;;;;;10.63;24.91;97959.06;4949970;28;20422;-71
2023/02/27 11:34:22;;;;;;;6.10;3.00;;;;;;;10.83;24.72;97969.59;4964911;28;20451;-70
2023/02/27 11:36:49;;;;;;;5.70;3.40;;;;;;;10.90;24.30;97955.81;4952242;28;20462;-72
2023/02/27 11:39:25;;;;;;;4.13;2.80;;;;;;;11.19;24.28;97960.25;4918574;29;20926;-72
2023/02/27 11:41:52;;;;;;;3.10;2.70;;;;;;;10.70;24.15;97972.47;4941335;28;20452;-70
2023/02/27 11:44:23;;;;;;;11.50;5.60;;;;;;;10.71;24.52;97955.78;4934837;29;20442;-71
2023/02/27 11:46:49;;;;;;;20.83;9.33;;;;;;;10.63;24.56;97963.47;4951504;28;20414;-70
2023/02/27 11:49:34;;;;;;;7.30;3.17;;;;;;;10.74;24.95;97960.75;4933484;29;20789;-72
2023/02/27 11:52:24;;;;;;;14.40;7.90;;;;;;;10.42;25.09;97951.28;4962365;28;20615;-70
2023/02/27 11:54:54;;;;;;;3.47;2.97;;;;;;;10.72;24.85;97952.16;4929171;28;20465;-69